createdAt,value
2022-08-29T00:00:19.224Z,7.90
2022-08-29T00:01:23.294Z,7.10
2022-08-29T00:02:27.982Z,6.50
2022-08-29T00:03:31.989Z,6.00
2022-08-29T00:04:34.463Z,7.10
2022-08-29T00:05:38.185Z,6.00
2022-08-29T00:06:42.281Z,6.10
2022-08-29T00:07:44.565Z,7.44
2022-08-29T00:08:46.589Z,5.60
2022-08-29T00:09:48.665Z,7.80
2022-08-29T00:10:50.909Z,8.80
2022-08-29T00:11:53.057Z,8.60
2022-08-29T00:12:57.820Z,8.60
2022-08-29T00:14:00.241Z,8.60
2022-08-29T00:15:04.178Z,7.40
2022-08-29T00:16:07.305Z,8.40
2022-08-29T00:17:09.486Z,8.60
2022-08-29T00:18:13.767Z,8.00
2022-08-29T00:19:16.151Z,8.90
2022-08-29T00:20:22.964Z,10.20
2022-08-29T00:21:26.711Z,8.30
2022-08-29T00:22:28.772Z,9.60
2022-08-29T00:23:31.231Z,9.50
2022-08-29T00:24:33.588Z,10.70
2022-08-29T00:25:36.318Z,8.70
2022-08-29T00:26:38.672Z,9.70
2022-08-29T00:27:41.128Z,9.20
2022-08-29T00:28:45.140Z,11.50
2022-08-29T00:29:47.755Z,9.00
2022-08-29T00:30:50.455Z,9.45
2022-08-29T00:31:52.564Z,11.80
2022-08-29T00:32:54.759Z,11.90
2022-08-29T00:33:56.832Z,11.80
2022-08-29T00:34:59.490Z,10.50
2022-08-29T00:36:01.673Z,10.60
2022-08-29T00:37:05.650Z,13.00
2022-08-29T00:38:11.256Z,14.10
2022-08-29T00:39:13.503Z,15.10
2022-08-29T00:40:20.019Z,14.50
2022-08-29T00:41:22.776Z,14.70
2022-08-29T00:42:25.039Z,15.60
2022-08-29T00:43:30.640Z,15.70
2022-08-29T00:44:32.847Z,15.10
2022-08-29T00:45:38.152Z,13.60
2022-08-29T00:46:43.856Z,14.10
2022-08-29T00:49:11.950Z,14.30
2022-08-29T00:50:18.634Z,14.60
2022-08-29T00:51:22.033Z,15.80
2022-08-29T00:52:33.480Z,13.00
2022-08-29T00:53:39.214Z,13.60
2022-08-29T00:54:44.264Z,12.80
2022-08-29T00:55:48.328Z,13.50
2022-08-29T00:57:00.054Z,13.80
2022-08-29T00:58:06.310Z,16.40
2022-08-29T00:59:14.816Z,13.50
2022-08-29T01:00:17.548Z,15.60
2022-08-29T01:01:20.337Z,14.80
2022-08-29T01:02:22.936Z,11.90
2022-08-29T01:03:26.680Z,11.90
2022-08-29T01:04:28.878Z,13.10
2022-08-29T01:05:31.624Z,13.60
2022-08-29T01:06:33.946Z,12.91
2022-08-29T01:07:38.022Z,13.80
2022-08-29T01:08:42.600Z,9.70
2022-08-29T01:09:44.742Z,13.00
2022-08-29T01:10:47.275Z,10.80
2022-08-29T01:11:49.816Z,12.00
2022-08-29T01:12:52.001Z,13.10
2022-08-29T01:13:54.836Z,12.80
2022-08-29T01:15:06.815Z,9.00
2022-08-29T01:16:11.952Z,11.90
2022-08-29T01:17:18.250Z,10.80
2022-08-29T01:18:21.179Z,12.60
2022-08-29T01:20:00.513Z,11.36
2022-08-29T01:21:21.485Z,12.20
2022-08-29T01:22:39.269Z,10.70
2022-08-29T01:24:11.366Z,8.80
2022-08-29T01:25:17.084Z,11.70
2022-08-29T01:26:20.309Z,13.40
2022-08-29T01:27:25.968Z,12.20
2022-08-29T01:28:37.586Z,9.00
2022-08-29T01:29:40.786Z,10.00
2022-08-29T01:31:14.217Z,11.00
2022-08-29T01:32:18.445Z,13.70
2022-08-29T01:33:21.592Z,11.40
2022-08-29T01:34:26.580Z,10.80
2022-08-29T01:35:29.178Z,11.50
2022-08-29T01:36:47.354Z,13.91
2022-08-29T01:37:50.307Z,12.60
2022-08-29T01:38:52.618Z,13.30
2022-08-29T01:39:54.670Z,13.70
2022-08-29T01:40:58.455Z,11.40
2022-08-29T01:42:03.784Z,12.60
2022-08-29T01:43:05.908Z,11.60
2022-08-29T01:44:11.421Z,13.40
2022-08-29T01:45:13.521Z,10.90
2022-08-29T01:46:20.255Z,12.20
2022-08-29T01:47:25.076Z,10.60
2022-08-29T01:48:27.206Z,11.60
2022-08-29T01:49:31.088Z,13.10
2022-08-29T01:50:34.011Z,12.20
2022-08-29T01:51:37.153Z,11.90
2022-08-29T01:52:40.951Z,12.30
2022-08-29T01:53:44.106Z,10.90
2022-08-29T01:54:46.622Z,12.90
2022-08-29T01:55:48.679Z,12.90
2022-08-29T01:56:52.576Z,9.36
2022-08-29T01:57:55.018Z,11.60
2022-08-29T01:59:00.727Z,12.70
2022-08-29T02:00:05.817Z,12.20
2022-08-29T02:01:10.307Z,12.10
2022-08-29T02:02:20.254Z,10.20
2022-08-29T02:03:22.590Z,2.70
2022-08-29T02:04:26.012Z,12.50
2022-08-29T02:05:29.465Z,12.20
2022-08-29T02:06:33.430Z,12.20
2022-08-29T02:07:35.599Z,11.00
2022-08-29T02:08:38.736Z,11.20
2022-08-29T02:09:45.534Z,12.40
2022-08-29T02:10:44.943Z,12.10
2022-08-29T02:11:47.093Z,13.10
2022-08-29T02:12:49.236Z,11.10
2022-08-29T02:13:57.418Z,10.40
2022-08-29T02:15:00.250Z,13.30
2022-08-29T02:16:03.302Z,12.70
2022-08-29T02:17:06.882Z,10.80
2022-08-29T02:18:09.132Z,9.80
2022-08-29T02:19:11.735Z,10.60
2022-08-29T02:20:15.598Z,10.90
2022-08-29T02:21:20.789Z,10.80
2022-08-29T02:22:22.999Z,11.90
2022-08-29T02:23:30.808Z,9.30
2022-08-29T02:24:30.609Z,13.00
2022-08-29T02:25:32.590Z,11.73
2022-08-29T02:26:36.451Z,10.80
2022-08-29T02:27:39.067Z,10.20
2022-08-29T02:28:41.226Z,10.40
2022-08-29T02:29:43.426Z,12.00
2022-08-29T02:30:48.754Z,11.60
2022-08-29T02:31:53.185Z,11.20
2022-08-29T02:32:55.488Z,12.09
2022-08-29T02:33:57.543Z,11.80
2022-08-29T02:34:59.730Z,11.40
2022-08-29T02:36:04.165Z,9.90
2022-08-29T02:37:06.884Z,11.90
2022-08-29T02:38:10.896Z,9.90
2022-08-29T02:39:13.072Z,10.30
2022-08-29T02:40:15.983Z,10.00
2022-08-29T02:41:18.306Z,7.20
2022-08-29T02:42:20.544Z,8.30
2022-08-29T02:43:22.991Z,10.20
2022-08-29T02:44:25.046Z,11.80
2022-08-29T02:45:27.683Z,10.20
2022-08-29T02:46:30.633Z,6.80
2022-08-29T02:47:33.632Z,9.00
2022-08-29T02:48:35.789Z,6.55
2022-08-29T02:49:37.853Z,9.60
2022-08-29T02:50:48.375Z,9.60
2022-08-29T02:51:50.590Z,9.30
2022-08-29T02:52:53.150Z,10.10
2022-08-29T02:53:55.909Z,8.60
2022-08-29T02:54:57.929Z,11.36
2022-08-29T02:56:00.008Z,9.80
2022-08-29T02:57:02.255Z,10.20
2022-08-29T02:58:05.295Z,10.70
2022-08-29T02:59:08.029Z,8.50
2022-08-29T03:00:18.088Z,9.40
2022-08-29T03:01:22.339Z,9.60
2022-08-29T03:02:24.914Z,11.80
2022-08-29T03:03:26.963Z,9.60
2022-08-29T03:04:29.128Z,7.70
2022-08-29T03:05:33.144Z,10.30
2022-08-29T03:06:35.366Z,9.60
2022-08-29T03:07:38.113Z,8.60
2022-08-29T03:08:40.167Z,11.50
2022-08-29T03:09:42.232Z,9.50
2022-08-29T03:10:44.747Z,9.50
2022-08-29T03:11:46.906Z,9.30
2022-08-29T03:12:50.492Z,11.40
2022-08-29T03:13:52.626Z,9.90
2022-08-29T03:14:56.637Z,8.10
2022-08-29T03:15:59.235Z,11.10
2022-08-29T03:17:01.558Z,9.73
2022-08-29T03:18:04.247Z,10.20
2022-08-29T03:19:06.300Z,10.70
2022-08-29T03:20:10.964Z,10.20
2022-08-29T03:21:15.887Z,11.40
2022-08-29T03:22:18.548Z,10.00
2022-08-29T03:23:21.090Z,9.55
2022-08-29T03:24:27.017Z,9.45
2022-08-29T03:25:27.664Z,10.50
2022-08-29T03:26:29.918Z,10.40
2022-08-29T03:27:33.425Z,9.40
2022-08-29T03:28:35.537Z,10.10
2022-08-29T03:29:37.623Z,11.00
2022-08-29T03:30:40.304Z,10.00
2022-08-29T03:31:42.565Z,10.00
2022-08-29T03:32:44.866Z,9.70
2022-08-29T03:33:47.209Z,10.90
2022-08-29T03:34:49.211Z,10.40
2022-08-29T03:35:51.163Z,11.00
2022-08-29T03:36:54.201Z,10.90
2022-08-29T03:37:57.125Z,11.64
2022-08-29T03:38:59.236Z,10.70
2022-08-29T03:40:03.084Z,11.80
2022-08-29T03:41:07.008Z,10.20
2022-08-29T03:42:09.512Z,10.90
2022-08-29T03:43:11.544Z,10.50
2022-08-29T03:44:14.010Z,11.40
2022-08-29T03:45:18.934Z,10.30
2022-08-29T03:46:22.086Z,10.50
2022-08-29T03:47:24.617Z,12.10
2022-08-29T03:48:27.232Z,12.00
2022-08-29T03:49:29.786Z,11.40
2022-08-29T03:50:32.472Z,7.18
2022-08-29T03:51:35.439Z,12.10
2022-08-29T03:52:37.563Z,11.55
2022-08-29T03:53:41.740Z,6.90
2022-08-29T03:54:43.700Z,10.80
2022-08-29T03:55:45.840Z,3.90
2022-08-29T03:56:48.689Z,11.00
2022-08-29T03:57:51.154Z,11.70
2022-08-29T03:58:54.452Z,12.60
2022-08-29T03:59:56.531Z,12.70
2022-08-29T04:00:59.211Z,11.50
2022-08-29T04:02:01.934Z,13.73
2022-08-29T04:03:04.270Z,12.64
2022-08-29T04:04:06.393Z,8.00
2022-08-29T04:05:09.610Z,12.60
2022-08-29T04:06:12.287Z,11.70
2022-08-29T04:07:15.273Z,11.50
2022-08-29T04:08:17.426Z,12.73
2022-08-29T04:09:19.959Z,13.50
2022-08-29T04:10:26.133Z,12.10
2022-08-29T04:11:28.418Z,12.60
2022-08-29T04:12:30.478Z,12.10
2022-08-29T04:13:32.419Z,11.10
2022-08-29T04:14:34.941Z,11.00
2022-08-29T04:15:39.993Z,8.50
2022-08-29T04:16:45.827Z,7.90
2022-08-29T04:17:51.075Z,13.00
2022-08-29T04:18:54.556Z,11.40
2022-08-29T04:19:56.729Z,12.00
2022-08-29T04:21:01.540Z,11.70
2022-08-29T04:22:05.058Z,13.80
2022-08-29T04:23:07.860Z,11.60
2022-08-29T04:24:09.944Z,12.55
2022-08-29T04:25:13.478Z,13.60
2022-08-29T04:27:22.939Z,15.10
2022-08-29T04:28:25.482Z,13.80
2022-08-29T04:29:27.652Z,14.80
2022-08-29T04:30:30.090Z,14.00
2022-08-29T04:31:32.460Z,16.30
2022-08-29T04:32:34.714Z,17.80
2022-08-29T04:33:37.270Z,18.50
2022-08-29T04:34:39.133Z,16.10
2022-08-29T04:35:41.039Z,16.22
2022-08-29T04:36:44.406Z,14.70
2022-08-29T04:37:47.225Z,16.27
2022-08-29T04:38:49.339Z,15.18
2022-08-29T04:39:52.462Z,15.00
2022-08-29T04:40:54.658Z,15.60
2022-08-29T04:41:56.699Z,14.80
2022-08-29T04:42:58.766Z,14.30
2022-08-29T04:44:01.126Z,14.10
2022-08-29T04:45:05.185Z,12.40
2022-08-29T04:46:07.877Z,13.20
2022-08-29T04:47:11.819Z,11.20
2022-08-29T04:48:14.475Z,15.20
2022-08-29T04:49:16.582Z,12.60
2022-08-29T04:50:22.696Z,14.00
2022-08-29T04:51:26.214Z,13.30
2022-08-29T04:52:28.351Z,13.20
2022-08-29T04:53:30.426Z,14.10
2022-08-29T04:54:32.395Z,14.20
2022-08-29T04:55:34.960Z,13.20
2022-08-29T04:56:43.643Z,10.10
2022-08-29T04:57:43.491Z,11.70
2022-08-29T04:58:46.351Z,12.50
2022-08-29T04:59:57.581Z,15.73
2022-08-29T05:01:00.787Z,17.00
2022-08-29T05:02:02.864Z,16.70
2022-08-29T05:03:04.975Z,17.70
2022-08-29T05:04:10.213Z,18.20
2022-08-29T05:05:14.175Z,22.00
2022-08-29T05:06:22.501Z,17.70
2022-08-29T05:07:26.055Z,17.50
2022-08-29T05:08:29.558Z,12.90
2022-08-29T05:09:32.730Z,14.50
2022-08-29T05:10:37.272Z,10.90
2022-08-29T05:11:39.533Z,11.82
2022-08-29T05:12:42.743Z,12.00
2022-08-29T05:13:46.143Z,11.20
2022-08-29T05:14:48.237Z,13.20
2022-08-29T05:15:50.988Z,11.80
2022-08-29T05:16:53.238Z,11.64
2022-08-29T05:17:55.235Z,12.10
2022-08-29T05:18:59.444Z,11.00
2022-08-29T05:20:03.809Z,11.60
2022-08-29T05:21:06.318Z,12.00
2022-08-29T05:22:09.449Z,6.30
2022-08-29T05:23:13.042Z,14.40
2022-08-29T05:24:16.835Z,10.80
2022-08-29T05:25:18.966Z,12.11
2022-08-29T05:26:21.880Z,10.30
2022-08-29T05:27:25.025Z,14.90
2022-08-29T05:28:28.398Z,12.20
2022-08-29T05:29:30.543Z,10.60
2022-08-29T05:30:35.093Z,11.73
2022-08-29T05:31:39.406Z,8.70
2022-08-29T05:32:41.856Z,12.50
2022-08-29T05:33:44.003Z,12.40
2022-08-29T05:34:47.969Z,11.70
2022-08-29T05:35:50.138Z,13.10
2022-08-29T05:36:52.704Z,14.80
2022-08-29T05:37:54.760Z,14.20
2022-08-29T05:38:57.220Z,10.90
2022-08-29T05:39:59.209Z,13.50
2022-08-29T05:41:01.685Z,12.70
2022-08-29T05:42:06.620Z,10.80
2022-08-29T05:43:09.728Z,12.00
2022-08-29T05:44:12.448Z,11.50
2022-08-29T05:45:14.605Z,12.80
2022-08-29T05:46:20.209Z,10.20
2022-08-29T05:47:22.726Z,9.10
2022-08-29T05:48:24.837Z,14.30
2022-08-29T05:49:27.157Z,10.40
2022-08-29T05:50:30.926Z,11.50
2022-08-29T05:51:39.356Z,7.09
2022-08-29T05:52:38.614Z,9.90
2022-08-29T05:53:40.687Z,10.80
2022-08-29T05:54:43.942Z,10.70
2022-08-29T05:55:46.012Z,10.20
2022-08-29T05:56:49.786Z,12.80
2022-08-29T05:57:53.561Z,10.80
2022-08-29T05:58:56.006Z,9.00
2022-08-29T05:59:58.046Z,7.00
2022-08-29T06:01:00.285Z,11.40
2022-08-29T06:02:07.422Z,11.50
2022-08-29T06:03:12.736Z,9.90
2022-08-29T06:04:15.245Z,11.70
2022-08-29T06:05:18.697Z,8.70
2022-08-29T06:06:23.415Z,10.90
2022-08-29T06:07:26.189Z,11.20
2022-08-29T06:08:28.248Z,11.60
2022-08-29T06:09:30.502Z,9.80
2022-08-29T06:10:33.043Z,12.60
2022-08-29T06:11:35.744Z,12.50
2022-08-29T06:12:38.238Z,13.10
2022-08-29T06:13:40.301Z,13.60
2022-08-29T06:14:42.534Z,13.50
2022-08-29T06:15:47.016Z,14.20
2022-08-29T06:16:50.436Z,13.80
2022-08-29T06:17:52.524Z,14.09
2022-08-29T06:18:56.519Z,13.60
2022-08-29T06:19:58.499Z,9.20
2022-08-29T06:21:04.816Z,10.27
2022-08-29T06:22:10.177Z,14.30
2022-08-29T06:23:13.535Z,13.00
2022-08-29T06:24:17.534Z,13.00
2022-08-29T06:25:38.444Z,15.50
2022-08-29T06:26:24.369Z,12.90
2022-08-29T06:27:26.426Z,11.60
2022-08-29T06:28:31.450Z,13.60
2022-08-29T06:29:38.454Z,8.90
2022-08-29T06:30:39.023Z,13.90
2022-08-29T06:31:41.138Z,10.70
2022-08-29T06:32:43.202Z,14.20
2022-08-29T06:33:45.253Z,14.10
2022-08-29T06:34:47.303Z,14.60
2022-08-29T06:35:49.806Z,12.40
2022-08-29T06:36:52.207Z,12.27
2022-08-29T06:37:54.271Z,13.60
2022-08-29T06:38:58.617Z,14.20
2022-08-29T06:40:00.679Z,14.00
2022-08-29T06:41:09.239Z,15.10
2022-08-29T06:42:11.826Z,13.60
2022-08-29T06:43:15.515Z,12.90
2022-08-29T06:44:17.583Z,12.90
2022-08-29T06:45:19.632Z,13.00
2022-08-29T06:46:32.516Z,10.60
2022-08-29T06:47:34.735Z,10.20
2022-08-29T06:48:37.874Z,14.90
2022-08-29T06:49:42.984Z,16.20
2022-08-29T06:50:45.746Z,11.90
2022-08-29T06:51:54.286Z,15.00
2022-08-29T06:52:55.758Z,14.50
2022-08-29T06:54:00.857Z,12.10
2022-08-29T06:55:03.925Z,12.80
2022-08-29T06:56:11.577Z,15.30
2022-08-29T06:57:12.743Z,15.80
2022-08-29T06:58:15.384Z,14.90
2022-08-29T06:59:19.722Z,15.00
2022-08-29T07:00:22.911Z,15.90
2022-08-29T07:01:25.399Z,15.55
2022-08-29T07:02:28.076Z,15.90
2022-08-29T07:03:30.174Z,12.40
2022-08-29T07:04:32.218Z,14.10
2022-08-29T07:05:34.727Z,15.30
2022-08-29T07:06:37.329Z,12.60
2022-08-29T07:07:39.491Z,13.90
2022-08-29T07:08:53.261Z,15.20
2022-08-29T07:09:46.479Z,17.50
2022-08-29T07:10:48.816Z,14.55
2022-08-29T07:11:50.853Z,14.80
2022-08-29T07:12:53.331Z,16.20
2022-08-29T07:13:58.174Z,13.90
2022-08-29T07:15:00.801Z,18.00
2022-08-29T07:16:05.101Z,13.45
2022-08-29T07:17:08.021Z,17.20
2022-08-29T07:18:10.156Z,17.18
2022-08-29T07:19:12.097Z,16.70
2022-08-29T07:20:16.764Z,17.27
2022-08-29T07:21:22.547Z,18.60
2022-08-29T07:22:24.685Z,15.20
2022-08-29T07:23:26.663Z,15.50
2022-08-29T07:24:30.144Z,15.90
2022-08-29T07:25:33.126Z,15.50
2022-08-29T07:26:41.863Z,15.90
2022-08-29T07:27:53.376Z,18.90
2022-08-29T07:28:56.580Z,16.90
2022-08-29T07:29:59.788Z,15.60
2022-08-29T07:31:04.348Z,16.20
2022-08-29T07:32:08.417Z,19.60
2022-08-29T07:33:13.436Z,17.70
2022-08-29T07:34:20.436Z,17.00
2022-08-29T07:35:30.098Z,16.50
2022-08-29T07:36:26.021Z,17.50
2022-08-29T07:37:27.989Z,18.67
2022-08-29T07:38:32.167Z,16.82
2022-08-29T07:39:36.637Z,19.40
2022-08-29T07:40:38.880Z,19.45
2022-08-29T07:41:44.055Z,18.30
2022-08-29T07:42:46.743Z,18.20
2022-08-29T07:43:49.165Z,17.18
2022-08-29T07:44:51.237Z,15.00
2022-08-29T07:45:53.510Z,14.90
2022-08-29T07:46:58.935Z,15.50
2022-08-29T07:48:02.695Z,20.60
2022-08-29T07:49:07.738Z,17.90
2022-08-29T07:50:13.262Z,21.00
2022-08-29T07:51:18.479Z,16.70
2022-08-29T07:52:25.944Z,17.50
2022-08-29T07:53:28.047Z,15.70
2022-08-29T07:54:30.400Z,17.90
2022-08-29T07:55:32.966Z,18.70
2022-08-29T07:56:40.781Z,16.60
2022-08-29T07:57:43.050Z,18.50
2022-08-29T07:58:45.936Z,16.70
2022-08-29T07:59:48.433Z,16.80
2022-08-29T08:00:51.172Z,12.80
2022-08-29T08:01:55.079Z,17.70
2022-08-29T08:02:57.266Z,17.50
2022-08-29T08:03:59.605Z,18.60
2022-08-29T08:05:01.658Z,17.70
2022-08-29T08:06:07.261Z,14.70
2022-08-29T08:07:13.600Z,16.40
2022-08-29T08:08:15.211Z,17.30
2022-08-29T08:09:17.032Z,15.40
2022-08-29T08:10:20.055Z,17.30
2022-08-29T08:11:24.016Z,16.50
2022-08-29T08:12:26.131Z,16.30
2022-08-29T08:13:28.210Z,18.30
2022-08-29T08:14:35.070Z,4.50
2022-08-29T08:15:36.122Z,18.10
2022-08-29T08:16:38.333Z,16.70
2022-08-29T08:17:44.204Z,13.80
2022-08-29T08:18:48.914Z,19.40
2022-08-29T08:19:54.108Z,18.20
2022-08-29T08:20:56.445Z,18.10
2022-08-29T08:21:59.602Z,16.00
2022-08-29T08:23:01.698Z,15.10
2022-08-29T08:24:04.436Z,17.50
2022-08-29T08:25:07.800Z,13.55
2022-08-29T08:26:12.108Z,13.30
2022-08-29T08:27:14.743Z,16.90
2022-08-29T08:28:16.977Z,17.10
2022-08-29T08:29:19.672Z,14.50
2022-08-29T08:30:23.147Z,18.70
2022-08-29T08:31:27.370Z,16.40
2022-08-29T08:32:32.369Z,14.70
2022-08-29T08:33:37.390Z,8.90
2022-08-29T08:34:39.612Z,17.80
2022-08-29T08:35:42.197Z,18.30
2022-08-29T08:36:45.009Z,16.91
2022-08-29T08:37:47.071Z,16.90
2022-08-29T08:38:51.280Z,19.20
2022-08-29T08:39:57.120Z,18.30
2022-08-29T08:41:27.066Z,15.60
2022-08-29T08:42:42.776Z,17.70
2022-08-29T08:43:57.454Z,19.70
2022-08-29T08:45:15.351Z,13.20
2022-08-29T08:46:28.680Z,13.60
2022-08-29T08:47:40.504Z,14.80
2022-08-29T08:48:44.717Z,13.60
2022-08-29T08:49:50.396Z,20.60
2022-08-29T08:51:08.426Z,18.20
2022-08-29T08:52:14.089Z,13.40
2022-08-29T08:53:19.745Z,18.00
2022-08-29T08:54:25.395Z,19.70
2022-08-29T08:55:50.116Z,20.10
2022-08-29T08:57:01.376Z,14.60
2022-08-29T08:58:05.165Z,14.20
2022-08-29T08:59:13.816Z,21.20
2022-08-29T09:00:16.729Z,15.90
2022-08-29T09:01:22.713Z,19.00
2022-08-29T09:02:46.623Z,19.10
2022-08-29T09:04:05.623Z,20.40
2022-08-29T09:05:30.379Z,16.30
2022-08-29T09:06:39.813Z,19.70
2022-08-29T09:08:03.545Z,17.60
2022-08-29T09:09:44.943Z,19.60
2022-08-29T09:11:02.359Z,16.30
2022-08-29T09:12:20.783Z,18.00
2022-08-29T09:15:03.089Z,17.80
2022-08-29T09:16:09.541Z,16.20
2022-08-29T09:17:18.370Z,17.20
2022-08-29T09:18:24.250Z,18.50
2022-08-29T09:19:27.110Z,18.40
2022-08-29T09:20:32.520Z,17.82
2022-08-29T09:21:42.062Z,18.80
2022-08-29T09:22:45.746Z,17.30
2022-08-29T09:23:51.474Z,16.70
2022-08-29T09:25:03.175Z,18.50
2022-08-29T09:26:06.236Z,19.60
2022-08-29T09:27:30.974Z,16.30
2022-08-29T09:28:33.804Z,19.90
2022-08-29T09:29:36.617Z,17.30
2022-08-29T09:30:41.684Z,16.90
2022-08-29T09:31:43.887Z,10.20
2022-08-29T09:33:01.920Z,14.50
2022-08-29T09:34:12.259Z,14.50
2022-08-29T09:35:27.331Z,13.70
2022-08-29T09:36:47.913Z,13.30
2022-08-29T09:38:19.258Z,20.90
2022-08-29T09:39:31.552Z,19.20
2022-08-29T09:41:02.690Z,19.90
2022-08-29T09:42:14.412Z,19.50
2022-08-29T09:43:27.101Z,14.40
2022-08-29T09:44:34.777Z,18.40
2022-08-29T09:45:36.899Z,14.90
2022-08-29T09:46:41.406Z,17.00
2022-08-29T09:47:44.079Z,18.50
2022-08-29T09:48:55.778Z,13.91
2022-08-29T09:50:13.683Z,12.50
2022-08-29T09:51:28.688Z,17.00
2022-08-29T09:52:31.505Z,20.40
2022-08-29T09:53:33.629Z,14.82
2022-08-29T09:54:35.793Z,19.10
2022-08-29T09:55:42.519Z,19.00
2022-08-29T09:57:06.497Z,16.50
2022-08-29T09:58:11.686Z,20.70
2022-08-29T09:59:32.116Z,15.80
2022-08-29T10:00:40.230Z,18.10
2022-08-29T10:01:42.516Z,18.30
2022-08-29T10:02:50.347Z,15.70
2022-08-29T10:03:58.273Z,17.70
2022-08-29T10:05:05.595Z,16.00
2022-08-29T10:06:16.113Z,16.60
2022-08-29T10:07:24.949Z,16.10
2022-08-29T10:08:30.623Z,16.80
2022-08-29T10:09:32.767Z,15.50
2022-08-29T10:10:36.794Z,18.00
2022-08-29T10:11:50.882Z,17.60
2022-08-29T10:13:12.569Z,14.30
2022-08-29T10:14:18.751Z,17.40
2022-08-29T10:15:49.541Z,16.10
2022-08-29T10:16:47.295Z,15.80
2022-08-29T10:18:05.247Z,15.10
2022-08-29T10:19:13.343Z,14.40
2022-08-29T10:20:16.898Z,13.80
2022-08-29T10:21:28.336Z,14.70
2022-08-29T10:22:49.226Z,12.90
2022-08-29T10:24:00.719Z,14.80
2022-08-29T10:25:06.470Z,14.90
2022-08-29T10:26:13.504Z,15.30
2022-08-29T10:27:28.361Z,9.50
2022-08-29T10:28:52.581Z,11.20
2022-08-29T10:29:58.335Z,14.70
2022-08-29T10:31:13.160Z,15.00
2022-08-29T10:32:42.686Z,15.40
2022-08-29T10:34:00.508Z,13.50
2022-08-29T10:35:19.351Z,13.70
2022-08-29T10:36:34.802Z,14.60
2022-08-29T10:38:11.585Z,16.00
2022-08-29T10:39:26.263Z,12.30
2022-08-29T10:40:43.430Z,14.80
2022-08-29T10:41:50.645Z,11.80
2022-08-29T10:42:59.134Z,14.90
2022-08-29T10:44:23.924Z,13.80
2022-08-29T10:45:35.708Z,9.20
2022-08-29T10:47:04.165Z,16.00
2022-08-29T10:48:12.819Z,13.10
2022-08-29T10:49:30.836Z,15.90
2022-08-29T10:50:44.533Z,15.10
2022-08-29T10:51:50.660Z,12.40
2022-08-29T10:53:03.385Z,8.40
2022-08-29T10:54:15.339Z,14.00
2022-08-29T10:55:46.421Z,14.10
2022-08-29T10:56:51.378Z,13.40
2022-08-29T10:58:14.231Z,13.00
2022-08-29T10:59:50.717Z,14.00
2022-08-29T11:00:56.580Z,15.50
2022-08-29T11:03:18.667Z,14.40
2022-08-29T11:04:31.145Z,14.90
2022-08-29T11:05:36.782Z,14.80
2022-08-29T11:06:42.645Z,16.20
2022-08-29T11:09:12.316Z,12.20
2022-08-29T11:10:19.578Z,15.50
2022-08-29T11:11:25.802Z,16.00
2022-08-29T11:12:40.018Z,15.00
2022-08-29T11:13:46.568Z,12.60
2022-08-29T11:16:23.065Z,14.00
2022-08-29T11:17:29.126Z,17.10
2022-08-29T11:18:43.847Z,16.40
2022-08-29T11:20:04.834Z,8.60
2022-08-29T11:21:16.466Z,12.60
2022-08-29T11:22:29.952Z,14.30
2022-08-29T11:23:47.396Z,13.90
2022-08-29T11:24:58.811Z,12.50
2022-08-29T11:26:04.468Z,12.30
2022-08-29T11:27:25.266Z,10.20
2022-08-29T11:28:48.853Z,12.10
2022-08-29T11:29:55.972Z,12.10
2022-08-29T11:31:13.577Z,12.40
2022-08-29T11:32:28.296Z,9.80
2022-08-29T11:33:39.914Z,12.50
2022-08-29T11:34:54.487Z,13.40
2022-08-29T11:36:35.482Z,12.30
2022-08-29T11:37:49.013Z,8.80
2022-08-29T11:38:57.380Z,14.20
2022-08-29T11:41:38.281Z,14.60
2022-08-29T11:42:51.849Z,12.50
2022-08-29T11:43:51.460Z,7.40
2022-08-29T11:44:57.043Z,9.00
2022-08-29T11:46:03.201Z,9.30
2022-08-29T11:47:31.716Z,9.40
2022-08-29T11:48:41.241Z,9.50
2022-08-29T11:49:47.324Z,12.90
2022-08-29T11:50:50.289Z,11.30
2022-08-29T11:51:56.296Z,10.80
2022-08-29T11:53:11.782Z,9.50
2022-08-29T11:54:30.239Z,12.00
2022-08-29T11:55:41.392Z,7.20
2022-08-29T11:56:45.991Z,13.30
2022-08-29T11:57:51.395Z,12.40
2022-08-29T11:58:56.567Z,10.80
2022-08-29T12:00:00.191Z,11.40
2022-08-29T12:01:02.638Z,10.18
2022-08-29T12:02:08.133Z,12.70
2022-08-29T12:03:35.482Z,13.45
2022-08-29T12:04:56.678Z,7.10
2022-08-29T12:06:19.697Z,12.80
2022-08-29T12:07:25.349Z,14.00
2022-08-29T12:08:37.170Z,11.20
2022-08-29T12:09:44.430Z,11.80
2022-08-29T12:10:54.302Z,12.00
2022-08-29T12:12:06.022Z,12.70
2022-08-29T12:13:08.185Z,9.80
2022-08-29T12:14:14.918Z,14.40
2022-08-29T12:15:35.903Z,10.30
2022-08-29T12:16:51.377Z,13.20
2022-08-29T12:18:02.421Z,13.10
2022-08-29T12:19:04.470Z,13.20
2022-08-29T12:20:10.694Z,11.30
2022-08-29T12:21:40.960Z,13.80
2022-08-29T12:23:05.926Z,14.40
2022-08-29T12:24:26.837Z,13.10
2022-08-29T12:26:59.740Z,14.30
2022-08-29T12:28:06.505Z,14.91
2022-08-29T12:29:31.066Z,10.80
2022-08-29T12:30:42.638Z,13.90
2022-08-29T12:32:22.477Z,14.20
2022-08-29T12:33:43.713Z,13.70
2022-08-29T12:35:14.036Z,14.30
2022-08-29T12:36:31.879Z,10.80
2022-08-29T12:37:57.254Z,14.70
2022-08-29T12:39:19.856Z,14.80
2022-08-29T12:40:29.535Z,4.10
2022-08-29T12:41:45.011Z,12.40
2022-08-29T12:42:57.174Z,14.00
2022-08-29T12:44:04.021Z,12.70
2022-08-29T12:45:13.985Z,13.20
2022-08-29T12:46:24.238Z,12.90
2022-08-29T12:47:29.914Z,12.70
2022-08-29T12:48:36.064Z,13.40
2022-08-29T12:49:48.322Z,14.50
2022-08-29T12:50:51.791Z,6.20
2022-08-29T12:51:57.288Z,13.30
2022-08-29T12:53:02.944Z,14.30
2022-08-29T12:54:06.559Z,13.90
2022-08-29T12:55:28.957Z,13.55
2022-08-29T12:56:33.637Z,14.60
2022-08-29T12:57:37.069Z,14.00
2022-08-29T12:58:42.480Z,13.00
2022-08-29T12:59:51.516Z,12.30
2022-08-29T13:00:54.020Z,14.10
2022-08-29T13:01:59.574Z,15.30
2022-08-29T13:03:15.175Z,14.20
2022-08-29T13:04:18.287Z,13.70
2022-08-29T13:05:28.399Z,14.70
2022-08-29T13:06:29.581Z,13.10
2022-08-29T13:07:31.754Z,14.27
2022-08-29T13:08:35.850Z,12.89
2022-08-29T13:09:41.564Z,11.20
2022-08-29T13:11:02.363Z,14.00
2022-08-29T13:12:14.535Z,14.20
2022-08-29T13:13:19.725Z,13.60
2022-08-29T13:14:21.862Z,14.90
2022-08-29T13:15:29.669Z,15.11
2022-08-29T13:16:31.651Z,13.80
2022-08-29T13:17:36.859Z,14.67
2022-08-29T13:18:53.924Z,11.40
2022-08-29T13:20:04.533Z,12.70
2022-08-29T13:21:19.274Z,14.20
2022-08-29T13:22:21.409Z,15.30
2022-08-29T13:23:34.267Z,13.56
2022-08-29T13:24:36.288Z,14.90
2022-08-29T13:26:12.568Z,16.33
2022-08-29T13:27:18.219Z,10.90
2022-08-29T13:28:39.249Z,13.90
2022-08-29T13:29:42.222Z,8.70
2022-08-29T13:30:48.678Z,9.30
2022-08-29T13:32:09.152Z,15.40
2022-08-29T13:33:27.018Z,9.00
2022-08-29T13:34:28.598Z,8.00
2022-08-29T13:35:32.801Z,12.44
2022-08-29T13:36:54.870Z,13.60
2022-08-29T13:38:19.120Z,12.10
2022-08-29T13:39:24.778Z,14.70
2022-08-29T13:40:40.264Z,13.00
2022-08-29T13:41:51.745Z,9.30
2022-08-29T13:42:54.158Z,14.30
2022-08-29T13:43:56.164Z,13.11
2022-08-29T13:45:01.698Z,11.00
2022-08-29T13:46:08.876Z,10.30
2022-08-29T13:47:17.178Z,12.90
2022-08-29T13:48:19.553Z,9.00
2022-08-29T13:49:24.819Z,11.89
2022-08-29T13:50:28.964Z,13.70
2022-08-29T13:51:31.018Z,14.70
2022-08-29T13:52:33.111Z,17.22
2022-08-29T13:53:35.293Z,14.11
2022-08-29T13:54:38.389Z,12.33
2022-08-29T13:55:41.518Z,14.00
2022-08-29T13:56:49.868Z,13.70
2022-08-29T13:57:53.860Z,14.30
2022-08-29T13:58:56.639Z,10.70
2022-08-29T13:59:59.370Z,15.20
2022-08-29T14:01:29.486Z,9.80
2022-08-29T14:02:09.378Z,12.10
2022-08-29T14:03:12.135Z,15.70
2022-08-29T14:04:36.757Z,14.40
2022-08-29T14:05:18.480Z,14.80
2022-08-29T14:06:23.637Z,16.10
2022-08-29T14:07:29.300Z,14.36
2022-08-29T14:08:31.297Z,15.00
2022-08-29T14:09:39.647Z,14.78
2022-08-29T14:10:42.715Z,14.60
2022-08-29T14:11:45.357Z,14.40
2022-08-29T14:12:47.515Z,13.60
2022-08-29T14:13:49.282Z,15.11
2022-08-29T14:14:51.589Z,10.30
2022-08-29T14:15:54.273Z,14.50
2022-08-29T14:16:57.623Z,12.33
2022-08-29T14:17:59.880Z,13.50
2022-08-29T14:19:02.437Z,9.60
2022-08-29T14:20:06.244Z,14.40
2022-08-29T14:21:08.763Z,11.20
2022-08-29T14:22:12.081Z,13.00
2022-08-29T14:23:15.169Z,7.10
2022-08-29T14:24:17.262Z,13.10
2022-08-29T14:25:19.689Z,12.90
2022-08-29T14:26:22.489Z,11.30
2022-08-29T14:27:24.538Z,6.90
2022-08-29T14:28:26.684Z,15.50
2022-08-29T14:29:31.129Z,11.50